No particular awareness of the weather is required.    There are no Weather-warnings


Meteo18 Weather Cam more information Meteo18 Weather Cam


Thunder radar more information blitzortung!


Rain radar more information rain snow radar


Visit our other weather sites:

Template documentation
and downloads

And another site



Weather Underground History page Text

Daily Summary for March 7, 2018 Units:  Both    English   Metric
« Previous Day
Next Day »
Daily Weekly Monthly Yearly Custom
  High: Low: Average:
Temperature: TemperatureC °F /  -17.8 °C 4.3 °F /  -15.4 °C 6.1 °F /  -14.4 °C
Dew Point: DewpointC °F /  -17.8 °C 2.3 °F /  -16.5 °C 3.9 °F /  -15.6 °C
Humidity: Humidity % 72 % 86 %
Wind Speed: WindSpeedKMH mph /  0 km/h - 11.6 mph /  18.7 km/h
Wind Gust: WindSpeedGustKMH mph /  0 km/h - -
Wind:- - WSW
Pressure: PressurehPa in /  0 hPa 992.4 in /  33602.7 hPa -
Precipitation: 2.8 in /  71.12 mm    
Historical Graphs
 
 
Tabular Data for March 7, 2018
Time Temperature Dew Point Pressure Wind Wind Speed Wind Gust Humidity Rainfall Rate (Hourly)
TemperatureC °F /  -17.8 °C DewpointC °F /  -17.8 °C PressurehPa in /  0 hPa Calm     Humidity % HourlyPrecipMM in /  0 mm
00:05 5.9 °F /  -14.5 °C 4.7 °F /  -15.2 °C 992.4 in /  33602.7 hPa SSW 13.0 mph /  20.9 km/h 24.1 mph /  38.8 km/h 92 % 0.0 in /  0 mm
00:11 5.9 °F /  -14.5 °C 4.7 °F /  -15.2 °C 992.4 in /  33602.7 hPa SW 14.3 mph /  23 km/h 24.1 mph /  38.8 km/h 92 % 0.0 in /  0 mm
00:17 5.9 °F /  -14.5 °C 4.7 °F /  -15.2 °C 992.4 in /  33602.7 hPa SSW 11.1 mph /  17.9 km/h 30.6 mph /  49.2 km/h 92 % 0.0 in /  0 mm
00:23 5.9 °F /  -14.5 °C 4.7 °F /  -15.2 °C 992.4 in /  33602.7 hPa SW 25.9 mph /  41.7 km/h 33.8 mph /  54.4 km/h 92 % 0.0 in /  0 mm
00:29 5.8 °F /  -14.6 °C 4.6 °F /  -15.2 °C 992.4 in /  33602.7 hPa SW 14.3 mph /  23 km/h 22.5 mph /  36.2 km/h 92 % 0.0 in /  0 mm
00:33 5.9 °F /  -14.5 °C 4.5 °F /  -15.3 °C 992.4 in /  33602.7 hPa SW 17.7 mph /  28.5 km/h 27.4 mph /  44.1 km/h 91 % 0.0 in /  0 mm
00:39 5.8 °F /  -14.6 °C 4.4 °F /  -15.3 °C 992.4 in /  33602.7 hPa SW 22.7 mph /  36.5 km/h 25.7 mph /  41.4 km/h 91 % 0.0 in /  0 mm
00:45 5.8 °F /  -14.6 °C 4.4 °F /  -15.3 °C 992.4 in /  33602.7 hPa SW 19.5 mph /  31.4 km/h 35.4 mph /  57 km/h 91 % 0.0 in /  0 mm
00:51 5.8 °F /  -14.6 °C 4.4 °F /  -15.3 °C 992.8 in /  33616.2 hPa SW 17.7 mph /  28.5 km/h 27.4 mph /  44.1 km/h 91 % 0.0 in /  0 mm
00:57 5.7 °F /  -14.6 °C 4.5 °F /  -15.3 °C 992.8 in /  33616.2 hPa SSW 16.3 mph /  26.2 km/h 27.4 mph /  44.1 km/h 92 % 0.0 in /  0 mm
01:03 5.6 °F /  -14.7 °C 4.4 °F /  -15.3 °C 992.8 in /  33616.2 hPa SW 22.7 mph /  36.5 km/h 33.8 mph /  54.4 km/h 92 % 0.0 in /  0 mm
01:09 5.6 °F /  -14.7 °C 4.2 °F /  -15.4 °C 993.1 in /  33626.4 hPa SW 13.0 mph /  20.9 km/h 35.4 mph /  57 km/h 91 % 0.0 in /  0 mm
01:15 5.5 °F /  -14.7 °C 4.3 °F /  -15.4 °C 993.1 in /  33626.4 hPa SW 22.7 mph /  36.5 km/h 29.0 mph /  46.7 km/h 92 % 0.0 in /  0 mm
01:21 5.4 °F /  -14.8 °C 4.2 °F /  -15.4 °C 993.1 in /  33626.4 hPa SSW 7.9 mph /  12.7 km/h 19.3 mph /  31.1 km/h 92 % 0.0 in /  0 mm
01:27 5.4 °F /  -14.8 °C 4.4 °F /  -15.3 °C 993.1 in /  33626.4 hPa WSW 17.7 mph /  28.5 km/h 22.5 mph /  36.2 km/h 93 % 0.0 in /  0 mm
01:33 5.4 °F /  -14.8 °C 4.2 °F /  -15.4 °C 993.1 in /  33626.4 hPa WSW 7.9 mph /  12.7 km/h 30.6 mph /  49.2 km/h 92 % 0.0 in /  0 mm
01:39 5.3 °F /  -14.8 °C 4.1 °F /  -15.5 °C 993.1 in /  33626.4 hPa SW 16.3 mph /  26.2 km/h 29.0 mph /  46.7 km/h 92 % 0.3 in /  7.62 mm
01:45 5.3 °F /  -14.8 °C 4.1 °F /  -15.5 °C 993.5 in /  33639.9 hPa WSW 19.5 mph /  31.4 km/h 30.6 mph /  49.2 km/h 92 % 0.3 in /  7.62 mm
01:51 5.3 °F /  -14.8 °C 4.0 °F /  -15.6 °C 993.5 in /  33639.9 hPa SW 17.7 mph /  28.5 km/h 25.7 mph /  41.4 km/h 91 % 0.3 in /  7.62 mm
01:57 5.4 °F /  -14.8 °C 3.9 °F /  -15.6 °C 993.5 in /  33639.9 hPa SW 9.7 mph /  15.6 km/h 20.9 mph /  33.6 km/h 90 % 0.3 in /  7.62 mm
02:03 5.4 °F /  -14.8 °C 3.9 °F /  -15.6 °C 993.5 in /  33639.9 hPa WSW 17.7 mph /  28.5 km/h 24.1 mph /  38.8 km/h 90 % 0.3 in /  7.62 mm
02:09 5.4 °F /  -14.8 °C 3.7 °F /  -15.7 °C 993.5 in /  33639.9 hPa SW 19.5 mph /  31.4 km/h 24.1 mph /  38.8 km/h 89 % 0.3 in /  7.62 mm
02:15 5.5 °F /  -14.7 °C 3.7 °F /  -15.7 °C 993.5 in /  33639.9 hPa WSW 13.0 mph /  20.9 km/h 40.2 mph /  64.7 km/h 88 % 0.3 in /  7.62 mm
02:21 5.5 °F /  -14.7 °C 3.7 °F /  -15.7 °C 993.8 in /  33650.1 hPa West 24.1 mph /  38.8 km/h 24.1 mph /  38.8 km/h 88 % 0.3 in /  7.62 mm
02:27 5.5 °F /  -14.7 °C 3.5 °F /  -15.8 °C 993.8 in /  33650.1 hPa West 16.3 mph /  26.2 km/h 24.1 mph /  38.8 km/h 87 % 0.3 in /  7.62 mm
02:33 5.6 °F /  -14.7 °C 3.6 °F /  -15.8 °C 993.8 in /  33650.1 hPa WSW 13.0 mph /  20.9 km/h 22.5 mph /  36.2 km/h 87 % 0.3 in /  7.62 mm
02:39 5.6 °F /  -14.7 °C 3.6 °F /  -15.8 °C 993.8 in /  33650.1 hPa SW 13.0 mph /  20.9 km/h 25.7 mph /  41.4 km/h 87 % 0.0 in /  0 mm
02:45 5.6 °F /  -14.7 °C 3.6 °F /  -15.8 °C 993.8 in /  33650.1 hPa West 9.7 mph /  15.6 km/h 25.7 mph /  41.4 km/h 87 % 0.0 in /  0 mm
02:51 5.6 °F /  -14.7 °C 3.6 °F /  -15.8 °C 994.1 in /  33660.2 hPa West 22.7 mph /  36.5 km/h 30.6 mph /  49.2 km/h 87 % 0.0 in /  0 mm
02:57 5.6 °F /  -14.7 °C 3.8 °F /  -15.7 °C 994.1 in /  33660.2 hPa West 22.7 mph /  36.5 km/h 25.7 mph /  41.4 km/h 88 % 0.0 in /  0 mm
03:03 5.5 °F /  -14.7 °C 3.7 °F /  -15.7 °C 994.1 in /  33660.2 hPa WSW 9.7 mph /  15.6 km/h 17.7 mph /  28.5 km/h 88 % 0.0 in /  0 mm
03:09 5.5 °F /  -14.7 °C 3.7 °F /  -15.7 °C 994.1 in /  33660.2 hPa SW 9.7 mph /  15.6 km/h 16.1 mph /  25.9 km/h 88 % 0.0 in /  0 mm
03:15 5.5 °F /  -14.7 °C 3.7 °F /  -15.7 °C 994.1 in /  33660.2 hPa SW 14.3 mph /  23 km/h 19.3 mph /  31.1 km/h 88 % 0.0 in /  0 mm
03:21 5.5 °F /  -14.7 °C 3.8 °F /  -15.7 °C 994.1 in /  33660.2 hPa SW 9.7 mph /  15.6 km/h 19.3 mph /  31.1 km/h 89 % 0.0 in /  0 mm
03:27 5.4 °F /  -14.8 °C 3.7 °F /  -15.7 °C 994.1 in /  33660.2 hPa WSW 13.0 mph /  20.9 km/h 25.7 mph /  41.4 km/h 89 % 0.0 in /  0 mm
03:33 5.4 °F /  -14.8 °C 3.9 °F /  -15.6 °C 994.1 in /  33660.2 hPa SSW 19.5 mph /  31.4 km/h 22.5 mph /  36.2 km/h 90 % 0.0 in /  0 mm
03:39 5.4 °F /  -14.8 °C 3.9 °F /  -15.6 °C 994.5 in /  33673.8 hPa West 6.4 mph /  10.3 km/h 17.7 mph /  28.5 km/h 90 % 0.0 in /  0 mm
03:45 5.4 °F /  -14.8 °C 3.7 °F /  -15.7 °C 994.5 in /  33673.8 hPa SW 14.3 mph /  23 km/h 24.1 mph /  38.8 km/h 89 % 0.0 in /  0 mm
03:51 5.4 °F /  -14.8 °C 3.6 °F /  -15.8 °C 994.5 in /  33673.8 hPa SW 19.5 mph /  31.4 km/h 25.7 mph /  41.4 km/h 88 % 0.0 in /  0 mm
03:57 5.4 °F /  -14.8 °C 3.7 °F /  -15.7 °C 994.8 in /  33683.9 hPa SW 11.1 mph /  17.9 km/h 24.1 mph /  38.8 km/h 89 % 0.0 in /  0 mm
04:03 5.4 °F /  -14.8 °C 3.6 °F /  -15.8 °C 994.8 in /  33683.9 hPa WSW 16.3 mph /  26.2 km/h 24.1 mph /  38.8 km/h 88 % 0.0 in /  0 mm
04:09 5.3 °F /  -14.8 °C 3.5 °F /  -15.8 °C 994.8 in /  33683.9 hPa SW 19.5 mph /  31.4 km/h 35.4 mph /  57 km/h 88 % 0.0 in /  0 mm
04:15 5.3 °F /  -14.8 °C 3.5 °F /  -15.8 °C 994.8 in /  33683.9 hPa SW 13.0 mph /  20.9 km/h 24.1 mph /  38.8 km/h 88 % 0.0 in /  0 mm
04:21 5.3 °F /  -14.8 °C 3.5 °F /  -15.8 °C 995.1 in /  33694.1 hPa SW 13.0 mph /  20.9 km/h 20.9 mph /  33.6 km/h 88 % 0.0 in /  0 mm
04:27 5.3 °F /  -14.8 °C 3.5 °F /  -15.8 °C 995.1 in /  33694.1 hPa SW 11.1 mph /  17.9 km/h 22.5 mph /  36.2 km/h 88 % 0.0 in /  0 mm
04:33 5.3 °F /  -14.8 °C 3.5 °F /  -15.8 °C 995.1 in /  33694.1 hPa SW 17.7 mph /  28.5 km/h 20.9 mph /  33.6 km/h 88 % 0.0 in /  0 mm
04:39 5.2 °F /  -14.9 °C 3.5 °F /  -15.8 °C 995.1 in /  33694.1 hPa SW 17.7 mph /  28.5 km/h 17.7 mph /  28.5 km/h 89 % 0.0 in /  0 mm
04:45 5.2 °F /  -14.9 °C 3.4 °F /  -15.9 °C 995.1 in /  33694.1 hPa SW 14.3 mph /  23 km/h 24.1 mph /  38.8 km/h 88 % 0.0 in /  0 mm
04:51 5.2 °F /  -14.9 °C 3.5 °F /  -15.8 °C 995.5 in /  33707.6 hPa SW 16.3 mph /  26.2 km/h 20.9 mph /  33.6 km/h 89 % 0.0 in /  0 mm
04:57 5.2 °F /  -14.9 °C 3.5 °F /  -15.8 °C 995.5 in /  33707.6 hPa SSW 13.0 mph /  20.9 km/h 24.1 mph /  38.8 km/h 89 % 0.0 in /  0 mm
05:03 5.1 °F /  -14.9 °C 3.4 °F /  -15.9 °C 995.5 in /  33707.6 hPa SSW 11.1 mph /  17.9 km/h 22.5 mph /  36.2 km/h 89 % 0.0 in /  0 mm
05:09 5.0 °F /  -15 °C 3.5 °F /  -15.8 °C 995.5 in /  33707.6 hPa SW 11.1 mph /  17.9 km/h 19.3 mph /  31.1 km/h 90 % 0.0 in /  0 mm
05:15 4.9 °F /  -15.1 °C 3.4 °F /  -15.9 °C 995.8 in /  33717.8 hPa SW 9.7 mph /  15.6 km/h 12.9 mph /  20.8 km/h 90 % 0.3 in /  7.62 mm
05:21 4.9 °F /  -15.1 °C 3.6 °F /  -15.8 °C 995.8 in /  33717.8 hPa WSW 9.7 mph /  15.6 km/h 19.3 mph /  31.1 km/h 91 % 0.3 in /  7.62 mm
05:27 4.8 °F /  -15.1 °C 3.5 °F /  -15.8 °C 995.8 in /  33717.8 hPa SW 16.3 mph /  26.2 km/h 17.7 mph /  28.5 km/h 91 % 0.3 in /  7.62 mm
05:33 4.8 °F /  -15.1 °C 3.6 °F /  -15.8 °C 995.8 in /  33717.8 hPa SW 16.3 mph /  26.2 km/h 17.7 mph /  28.5 km/h 92 % 0.3 in /  7.62 mm
05:39 4.8 °F /  -15.1 °C 3.6 °F /  -15.8 °C 995.8 in /  33717.8 hPa SW 3.2 mph /  5.1 km/h 16.1 mph /  25.9 km/h 92 % 0.3 in /  7.62 mm
05:45 4.8 °F /  -15.1 °C 3.6 °F /  -15.8 °C 995.8 in /  33717.8 hPa WSW 9.7 mph /  15.6 km/h 11.3 mph /  18.2 km/h 92 % 0.5 in /  12.7 mm
05:51 4.8 °F /  -15.1 °C 3.6 °F /  -15.8 °C 995.8 in /  33717.8 hPa SW 19.5 mph /  31.4 km/h 20.9 mph /  33.6 km/h 92 % 0.5 in /  12.7 mm
05:57 4.8 °F /  -15.1 °C 3.6 °F /  -15.8 °C 995.8 in /  33717.8 hPa SW 6.4 mph /  10.3 km/h 16.1 mph /  25.9 km/h 92 % 0.5 in /  12.7 mm
06:03 4.7 °F /  -15.2 °C 3.5 °F /  -15.8 °C 995.8 in /  33717.8 hPa WSW 13.0 mph /  20.9 km/h 16.1 mph /  25.9 km/h 92 % 0.5 in /  12.7 mm
06:09 4.7 °F /  -15.2 °C 3.5 °F /  -15.8 °C 995.8 in /  33717.8 hPa SW 9.7 mph /  15.6 km/h 22.5 mph /  36.2 km/h 92 % 0.5 in /  12.7 mm
06:15 4.8 °F /  -15.1 °C 3.6 °F /  -15.8 °C 995.8 in /  33717.8 hPa SW 4.7 mph /  7.6 km/h 14.5 mph /  23.3 km/h 92 % 0.5 in /  12.7 mm
06:21 4.8 °F /  -15.1 °C 3.5 °F /  -15.8 °C 995.8 in /  33717.8 hPa WSW 6.4 mph /  10.3 km/h 25.7 mph /  41.4 km/h 91 % 0.5 in /  12.7 mm
06:27 4.8 °F /  -15.1 °C 3.5 °F /  -15.8 °C 995.8 in /  33717.8 hPa SW 22.7 mph /  36.5 km/h 24.1 mph /  38.8 km/h 91 % 0.5 in /  12.7 mm
06:33 4.8 °F /  -15.1 °C 3.5 °F /  -15.8 °C 996.2 in /  33731.3 hPa SW 13.0 mph /  20.9 km/h 19.3 mph /  31.1 km/h 91 % 0.5 in /  12.7 mm
06:39 4.8 °F /  -15.1 °C 3.5 °F /  -15.8 °C 996.2 in /  33731.3 hPa West 20.9 mph /  33.6 km/h 27.4 mph /  44.1 km/h 91 % 0.5 in /  12.7 mm
06:45 4.7 °F /  -15.2 °C 3.4 °F /  -15.9 °C 996.2 in /  33731.3 hPa WSW 13.0 mph /  20.9 km/h 22.5 mph /  36.2 km/h 91 % 0.3 in /  7.62 mm
06:51 4.7 °F /  -15.2 °C 3.5 °F /  -15.8 °C 996.2 in /  33731.3 hPa WSW 16.3 mph /  26.2 km/h 17.7 mph /  28.5 km/h 92 % 0.3 in /  7.62 mm
06:57 4.6 °F /  -15.2 °C 3.4 °F /  -15.9 °C 996.5 in /  33741.5 hPa WSW 7.9 mph /  12.7 km/h 14.5 mph /  23.3 km/h 92 % 0.3 in /  7.62 mm
07:03 4.6 °F /  -15.2 °C 3.6 °F /  -15.8 °C 996.5 in /  33741.5 hPa SW 13.0 mph /  20.9 km/h 25.7 mph /  41.4 km/h 93 % 0.0 in /  0 mm
07:09 4.6 °F /  -15.2 °C 3.6 °F /  -15.8 °C 996.5 in /  33741.5 hPa SW 13.0 mph /  20.9 km/h 17.7 mph /  28.5 km/h 93 % 0.0 in /  0 mm
07:15 4.6 °F /  -15.2 °C 3.6 °F /  -15.8 °C 996.5 in /  33741.5 hPa SW 9.7 mph /  15.6 km/h 17.7 mph /  28.5 km/h 93 % 0.0 in /  0 mm
07:21 4.7 °F /  -15.2 °C 3.7 °F /  -15.7 °C 996.5 in /  33741.5 hPa SSW 16.3 mph /  26.2 km/h 22.5 mph /  36.2 km/h 93 % 0.3 in /  7.62 mm
07:27 4.7 °F /  -15.2 °C 3.5 °F /  -15.8 °C 996.8 in /  33751.6 hPa SW 14.3 mph /  23 km/h 17.7 mph /  28.5 km/h 92 % 0.3 in /  7.62 mm
07:33 4.7 °F /  -15.2 °C 3.5 °F /  -15.8 °C 996.8 in /  33751.6 hPa WSW 11.1 mph /  17.9 km/h 19.3 mph /  31.1 km/h 92 % 0.3 in /  7.62 mm
07:39 4.7 °F /  -15.2 °C 3.5 °F /  -15.8 °C 996.8 in /  33751.6 hPa WSW 9.7 mph /  15.6 km/h 22.5 mph /  36.2 km/h 92 % 0.3 in /  7.62 mm
07:45 4.8 °F /  -15.1 °C 3.6 °F /  -15.8 °C 997.2 in /  33765.2 hPa WSW 17.7 mph /  28.5 km/h 24.1 mph /  38.8 km/h 92 % 0.3 in /  7.62 mm
07:51 4.8 °F /  -15.1 °C 3.6 °F /  -15.8 °C 997.2 in /  33765.2 hPa SSE 16.3 mph /  26.2 km/h 24.1 mph /  38.8 km/h 92 % 0.3 in /  7.62 mm
07:57 4.7 °F /  -15.2 °C 3.5 °F /  -15.8 °C 997.2 in /  33765.2 hPa SW 24.1 mph /  38.8 km/h 29.0 mph /  46.7 km/h 92 % 0.3 in /  7.62 mm
08:03 4.7 °F /  -15.2 °C 3.5 °F /  -15.8 °C 997.5 in /  33775.4 hPa SW 13.0 mph /  20.9 km/h 17.7 mph /  28.5 km/h 92 % 0.3 in /  7.62 mm
08:09 4.7 °F /  -15.2 °C 3.5 °F /  -15.8 °C 997.5 in /  33775.4 hPa WSW 28.8 mph /  46.3 km/h 29.0 mph /  46.7 km/h 92 % 0.3 in /  7.62 mm
08:15 4.8 °F /  -15.1 °C 3.5 °F /  -15.8 °C 997.5 in /  33775.4 hPa SSW 7.9 mph /  12.7 km/h 24.1 mph /  38.8 km/h 91 % 0.3 in /  7.62 mm
08:21 4.8 °F /  -15.1 °C 3.5 °F /  -15.8 °C 997.9 in /  33788.9 hPa SW 14.3 mph /  23 km/h 24.1 mph /  38.8 km/h 91 % 0.0 in /  0 mm
08:27 4.8 °F /  -15.1 °C 3.5 °F /  -15.8 °C 997.9 in /  33788.9 hPa West 7.9 mph /  12.7 km/h 24.1 mph /  38.8 km/h 91 % 0.0 in /  0 mm
08:33 4.8 °F /  -15.1 °C 3.6 °F /  -15.8 °C 997.9 in /  33788.9 hPa WSW 9.7 mph /  15.6 km/h 14.5 mph /  23.3 km/h 92 % 0.0 in /  0 mm
08:39 4.7 °F /  -15.2 °C 3.5 °F /  -15.8 °C 997.9 in /  33788.9 hPa West 11.1 mph /  17.9 km/h 24.1 mph /  38.8 km/h 92 % 0.0 in /  0 mm
08:45 4.7 °F /  -15.2 °C 3.5 °F /  -15.8 °C 997.9 in /  33788.9 hPa SW 14.3 mph /  23 km/h 22.5 mph /  36.2 km/h 92 % 0.0 in /  0 mm
08:51 4.7 °F /  -15.2 °C 3.5 °F /  -15.8 °C 998.2 in /  33799.1 hPa WSW 14.3 mph /  23 km/h 24.1 mph /  38.8 km/h 92 % 0.0 in /  0 mm
08:57 4.8 °F /  -15.1 °C 3.6 °F /  -15.8 °C 998.2 in /  33799.1 hPa WSW 16.3 mph /  26.2 km/h 19.3 mph /  31.1 km/h 92 % 0.0 in /  0 mm
09:03 4.8 °F /  -15.1 °C 3.6 °F /  -15.8 °C 998.2 in /  33799.1 hPa SW 19.5 mph /  31.4 km/h 27.4 mph /  44.1 km/h 92 % 0.0 in /  0 mm
09:09 4.8 °F /  -15.1 °C 3.6 °F /  -15.8 °C 998.5 in /  33809.2 hPa SW 13.0 mph /  20.9 km/h 17.7 mph /  28.5 km/h 92 % 0.0 in /  0 mm
09:15 4.8 °F /  -15.1 °C 3.5 °F /  -15.8 °C 998.5 in /  33809.2 hPa WSW 9.7 mph /  15.6 km/h 29.0 mph /  46.7 km/h 91 % 0.0 in /  0 mm
09:21 4.8 °F /  -15.1 °C 3.5 °F /  -15.8 °C 998.5 in /  33809.2 hPa SW 17.7 mph /  28.5 km/h 25.7 mph /  41.4 km/h 91 % 0.0 in /  0 mm
09:27 4.8 °F /  -15.1 °C 3.5 °F /  -15.8 °C 998.5 in /  33809.2 hPa WSW 17.7 mph /  28.5 km/h 22.5 mph /  36.2 km/h 91 % 0.0 in /  0 mm
09:33 4.8 °F /  -15.1 °C 3.5 °F /  -15.8 °C 998.9 in /  33822.8 hPa SW 17.7 mph /  28.5 km/h 27.4 mph /  44.1 km/h 91 % 0.0 in /  0 mm
09:39 4.8 °F /  -15.1 °C 3.5 °F /  -15.8 °C 998.9 in /  33822.8 hPa SSW 17.7 mph /  28.5 km/h 24.1 mph /  38.8 km/h 91 % 0.3 in /  7.62 mm
09:45 4.7 °F /  -15.2 °C 3.5 °F /  -15.8 °C 999.2 in /  33832.9 hPa WSW 20.9 mph /  33.6 km/h 20.9 mph /  33.6 km/h 92 % 0.3 in /  7.62 mm
09:52 4.7 °F /  -15.2 °C 3.5 °F /  -15.8 °C 999.2 in /  33832.9 hPa SW 4.7 mph /  7.6 km/h 27.4 mph /  44.1 km/h 92 % 0.3 in /  7.62 mm
09:58 4.8 °F /  -15.1 °C 3.6 °F /  -15.8 °C 999.2 in /  33832.9 hPa WSW 14.3 mph /  23 km/h 16.1 mph /  25.9 km/h 92 % 0.3 in /  7.62 mm
10:04 4.9 °F /  -15.1 °C 3.6 °F /  -15.8 °C 999.2 in /  33832.9 hPa WSW 13.0 mph /  20.9 km/h 29.0 mph /  46.7 km/h 91 % 0.3 in /  7.62 mm
10:10 5.1 °F /  -14.9 °C 3.8 °F /  -15.7 °C 999.2 in /  33832.9 hPa SW 14.3 mph /  23 km/h 20.9 mph /  33.6 km/h 91 % 0.3 in /  7.62 mm
10:16 5.2 °F /  -14.9 °C 3.9 °F /  -15.6 °C 999.2 in /  33832.9 hPa SW 22.7 mph /  36.5 km/h 24.1 mph /  38.8 km/h 91 % 0.5 in /  12.7 mm
10:22 5.3 °F /  -14.8 °C 4.0 °F /  -15.6 °C 999.5 in /  33843.1 hPa WSW 19.5 mph /  31.4 km/h 24.1 mph /  38.8 km/h 91 % 0.5 in /  12.7 mm
10:28 5.3 °F /  -14.8 °C 4.0 °F /  -15.6 °C 999.5 in /  33843.1 hPa WSW 9.7 mph /  15.6 km/h 17.7 mph /  28.5 km/h 91 % 0.5 in /  12.7 mm
10:34 5.2 °F /  -14.9 °C 4.0 °F /  -15.6 °C 999.5 in /  33843.1 hPa SSW 11.1 mph /  17.9 km/h 12.9 mph /  20.8 km/h 92 % 0.5 in /  12.7 mm
10:40 5.2 °F /  -14.9 °C 4.0 °F /  -15.6 °C 999.5 in /  33843.1 hPa SW 14.3 mph /  23 km/h 17.7 mph /  28.5 km/h 92 % 0.3 in /  7.62 mm
10:46 5.2 °F /  -14.9 °C 4.0 °F /  -15.6 °C 999.9 in /  33856.6 hPa WSW 11.1 mph /  17.9 km/h 20.9 mph /  33.6 km/h 92 % 0.5 in /  12.7 mm
10:52 5.3 °F /  -14.8 °C 4.3 °F /  -15.4 °C 999.9 in /  33856.6 hPa WNW 13.0 mph /  20.9 km/h 24.1 mph /  38.8 km/h 93 % 0.5 in /  12.7 mm
10:58 5.4 °F /  -14.8 °C 4.4 °F /  -15.3 °C 999.9 in /  33856.6 hPa West 19.5 mph /  31.4 km/h 20.9 mph /  33.6 km/h 93 % 0.5 in /  12.7 mm
11:04 5.4 °F /  -14.8 °C 4.4 °F /  -15.3 °C 999.9 in /  33856.6 hPa WSW 13.0 mph /  20.9 km/h 16.1 mph /  25.9 km/h 93 % 0.5 in /  12.7 mm
11:10 5.5 °F /  -14.7 °C 4.3 °F /  -15.4 °C 999.9 in /  33856.6 hPa SW 11.1 mph /  17.9 km/h 25.7 mph /  41.4 km/h 92 % 0.5 in /  12.7 mm
11:16 5.6 °F /  -14.7 °C 4.4 °F /  -15.3 °C 1000.2 in /  33866.8 hPa WSW 14.3 mph /  23 km/h 25.7 mph /  41.4 km/h 92 % 0.3 in /  7.62 mm
11:22 5.8 °F /  -14.6 °C 4.6 °F /  -15.2 °C 999.9 in /  33856.6 hPa WSW 11.1 mph /  17.9 km/h 24.1 mph /  38.8 km/h 92 % 0.3 in /  7.62 mm
11:28 5.9 °F /  -14.5 °C 4.5 °F /  -15.3 °C 1000.2 in /  33866.8 hPa West 20.9 mph /  33.6 km/h 22.5 mph /  36.2 km/h 91 % 0.3 in /  7.62 mm
11:34 5.9 °F /  -14.5 °C 4.5 °F /  -15.3 °C 1000.2 in /  33866.8 hPa WSW 19.5 mph /  31.4 km/h 19.5 mph /  31.4 km/h 91 % 0.3 in /  7.62 mm
11:40 5.8 °F /  -14.6 °C 4.6 °F /  -15.2 °C 1000.2 in /  33866.8 hPa WSW 17.7 mph /  28.5 km/h 22.5 mph /  36.2 km/h 92 % 0.5 in /  12.7 mm
11:46 5.8 °F /  -14.6 °C 4.6 °F /  -15.2 °C 1000.2 in /  33866.8 hPa WSW 19.5 mph /  31.4 km/h 20.9 mph /  33.6 km/h 92 % 0.3 in /  7.62 mm
11:52 5.9 °F /  -14.5 °C 4.7 °F /  -15.2 °C 1000.6 in /  33880.3 hPa WNW 17.7 mph /  28.5 km/h 27.4 mph /  44.1 km/h 92 % 0.3 in /  7.62 mm
11:58 5.9 °F /  -14.5 °C 4.5 °F /  -15.3 °C 1000.6 in /  33880.3 hPa WSW 19.5 mph /  31.4 km/h 22.5 mph /  36.2 km/h 91 % 0.3 in /  7.62 mm
12:04 6.1 °F /  -14.4 °C 4.7 °F /  -15.2 °C 1000.6 in /  33880.3 hPa WSW 13.0 mph /  20.9 km/h 16.1 mph /  25.9 km/h 91 % 0.3 in /  7.62 mm
12:10 6.2 °F /  -14.3 °C 4.7 °F /  -15.2 °C 1000.6 in /  33880.3 hPa WSW 6.4 mph /  10.3 km/h 22.5 mph /  36.2 km/h 90 % 0.3 in /  7.62 mm
12:16 6.4 °F /  -14.2 °C 4.6 °F /  -15.2 °C 1000.6 in /  33880.3 hPa WSW 22.7 mph /  36.5 km/h 24.1 mph /  38.8 km/h 88 % 0.3 in /  7.62 mm
12:22 6.6 °F /  -14.1 °C 4.6 °F /  -15.2 °C 1000.9 in /  33890.5 hPa WSW 13.0 mph /  20.9 km/h 24.1 mph /  38.8 km/h 87 % 0.3 in /  7.62 mm
12:28 6.7 °F /  -14.1 °C 4.7 °F /  -15.2 °C 1000.9 in /  33890.5 hPa West 14.3 mph /  23 km/h 24.1 mph /  38.8 km/h 87 % 0.3 in /  7.62 mm
12:34 6.8 °F /  -14 °C 5.0 °F /  -15 °C 1000.9 in /  33890.5 hPa WSW 7.9 mph /  12.7 km/h 11.3 mph /  18.2 km/h 88 % 0.3 in /  7.62 mm
12:40 6.7 °F /  -14.1 °C 4.5 °F /  -15.3 °C 1000.9 in /  33890.5 hPa WSW 6.4 mph /  10.3 km/h 14.5 mph /  23.3 km/h 86 % 0.0 in /  0 mm
12:46 6.7 °F /  -14.1 °C 4.7 °F /  -15.2 °C 1000.9 in /  33890.5 hPa SW 13.0 mph /  20.9 km/h 19.3 mph /  31.1 km/h 87 % 0.0 in /  0 mm
12:52 6.6 °F /  -14.1 °C 4.6 °F /  -15.2 °C 1000.9 in /  33890.5 hPa WSW 13.0 mph /  20.9 km/h 17.7 mph /  28.5 km/h 87 % 0.0 in /  0 mm
12:58 6.3 °F /  -14.3 °C 4.3 °F /  -15.4 °C 1000.9 in /  33890.5 hPa WSW 13.0 mph /  20.9 km/h 22.5 mph /  36.2 km/h 87 % 0.3 in /  7.62 mm
13:04 6.8 °F /  -14 °C 5.0 °F /  -15 °C 1000.9 in /  33890.5 hPa WSW 9.7 mph /  15.6 km/h 24.1 mph /  38.8 km/h 88 % 0.3 in /  7.62 mm
13:10 7.1 °F /  -13.8 °C 5.2 °F /  -14.9 °C 1000.9 in /  33890.5 hPa West 9.7 mph /  15.6 km/h 22.5 mph /  36.2 km/h 88 % 0.3 in /  7.62 mm
13:16 6.9 °F /  -13.9 °C 4.4 °F /  -15.3 °C 1000.9 in /  33890.5 hPa WSW 14.3 mph /  23 km/h 24.1 mph /  38.8 km/h 84 % 0.5 in /  12.7 mm
13:22 7.0 °F /  -13.9 °C 4.8 °F /  -15.1 °C 1000.9 in /  33890.5 hPa SW 16.3 mph /  26.2 km/h 19.3 mph /  31.1 km/h 86 % 0.5 in /  12.7 mm
13:28 7.2 °F /  -13.8 °C 5.0 °F /  -15 °C 1000.9 in /  33890.5 hPa West 13.0 mph /  20.9 km/h 25.7 mph /  41.4 km/h 86 % 0.5 in /  12.7 mm
13:34 7.3 °F /  -13.7 °C 4.8 °F /  -15.1 °C 1000.9 in /  33890.5 hPa WSW 17.7 mph /  28.5 km/h 19.3 mph /  31.1 km/h 84 % 0.5 in /  12.7 mm
13:40 7.4 °F /  -13.7 °C 5.0 °F /  -15 °C 1000.9 in /  33890.5 hPa WSW 9.7 mph /  15.6 km/h 14.5 mph /  23.3 km/h 85 % 0.5 in /  12.7 mm
13:46 7.6 °F /  -13.6 °C 5.2 °F /  -14.9 °C 1000.9 in /  33890.5 hPa SW 7.9 mph /  12.7 km/h 11.3 mph /  18.2 km/h 85 % 0.5 in /  12.7 mm
13:52 7.8 °F /  -13.4 °C 5.1 °F /  -14.9 °C 1000.9 in /  33890.5 hPa West 7.9 mph /  12.7 km/h 17.7 mph /  28.5 km/h 83 % 0.5 in /  12.7 mm
13:58 8.0 °F /  -13.3 °C 5.3 °F /  -14.8 °C 1000.9 in /  33890.5 hPa WSW 7.9 mph /  12.7 km/h 14.5 mph /  23.3 km/h 83 % 0.5 in /  12.7 mm
14:04 8.0 °F /  -13.3 °C 4.6 °F /  -15.2 °C 1000.9 in /  33890.5 hPa West 20.9 mph /  33.6 km/h 27.4 mph /  44.1 km/h 79 % 0.5 in /  12.7 mm
14:10 8.3 °F /  -13.2 °C 5.2 °F /  -14.9 °C 1000.9 in /  33890.5 hPa West 4.7 mph /  7.6 km/h 19.3 mph /  31.1 km/h 81 % 0.5 in /  12.7 mm
14:16 8.3 °F /  -13.2 °C 4.9 °F /  -15.1 °C 1000.9 in /  33890.5 hPa WSW 14.3 mph /  23 km/h 19.3 mph /  31.1 km/h 79 % 0.0 in /  0 mm
14:22 8.5 °F /  -13.1 °C 4.9 °F /  -15.1 °C 1000.9 in /  33890.5 hPa SW 11.1 mph /  17.9 km/h 19.3 mph /  31.1 km/h 78 % 0.0 in /  0 mm
14:28 8.3 °F /  -13.2 °C 5.1 °F /  -14.9 °C 1001.2 in /  33900.6 hPa West 22.7 mph /  36.5 km/h 27.4 mph /  44.1 km/h 80 % 0.0 in /  0 mm
14:34 8.1 °F /  -13.3 °C 5.2 °F /  -14.9 °C 1001.2 in /  33900.6 hPa West 19.5 mph /  31.4 km/h 22.5 mph /  36.2 km/h 82 % 0.0 in /  0 mm
14:40 8.3 °F /  -13.2 °C 5.8 °F /  -14.6 °C 1001.2 in /  33900.6 hPa West 14.3 mph /  23 km/h 20.9 mph /  33.6 km/h 84 % 0.0 in /  0 mm
14:46 8.3 °F /  -13.2 °C 5.1 °F /  -14.9 °C 1001.2 in /  33900.6 hPa West 17.7 mph /  28.5 km/h 32.2 mph /  51.8 km/h 80 % 0.0 in /  0 mm
14:52 8.3 °F /  -13.2 °C 4.7 °F /  -15.2 °C 1001.2 in /  33900.6 hPa West 14.3 mph /  23 km/h 22.5 mph /  36.2 km/h 78 % 0.0 in /  0 mm
14:58 8.4 °F /  -13.1 °C 4.6 °F /  -15.2 °C 1001.2 in /  33900.6 hPa WSW 14.3 mph /  23 km/h 19.3 mph /  31.1 km/h 77 % 0.0 in /  0 mm
15:04 8.6 °F /  -13 °C 4.8 °F /  -15.1 °C 1001.2 in /  33900.6 hPa West 9.7 mph /  15.6 km/h 20.9 mph /  33.6 km/h 77 % 0.0 in /  0 mm
15:10 8.6 °F /  -13 °C 4.6 °F /  -15.2 °C 1001.2 in /  33900.6 hPa WSW 14.3 mph /  23 km/h 27.4 mph /  44.1 km/h 76 % 0.0 in /  0 mm
15:16 8.2 °F /  -13.2 °C 4.4 °F /  -15.3 °C 1001.6 in /  33914.2 hPa WSW 24.1 mph /  38.8 km/h 25.7 mph /  41.4 km/h 77 % 0.0 in /  0 mm
15:22 7.9 °F /  -13.4 °C 4.7 °F /  -15.2 °C 1001.6 in /  33914.2 hPa WSW 7.9 mph /  12.7 km/h 17.7 mph /  28.5 km/h 80 % 0.0 in /  0 mm
15:28 8.0 °F /  -13.3 °C 4.6 °F /  -15.2 °C 1001.6 in /  33914.2 hPa WSW 14.3 mph /  23 km/h 20.9 mph /  33.6 km/h 79 % 0.0 in /  0 mm
15:34 7.8 °F /  -13.4 °C 4.9 °F /  -15.1 °C 1001.6 in /  33914.2 hPa West 7.9 mph /  12.7 km/h 17.7 mph /  28.5 km/h 82 % 0.0 in /  0 mm
15:40 7.7 °F /  -13.5 °C 5.0 °F /  -15 °C 1001.6 in /  33914.2 hPa WSW 3.2 mph /  5.1 km/h 8.0 mph /  12.9 km/h 83 % 0.0 in /  0 mm
15:46 7.7 °F /  -13.5 °C 5.0 °F /  -15 °C 1001.6 in /  33914.2 hPa West 4.7 mph /  7.6 km/h 9.7 mph /  15.6 km/h 83 % 0.0 in /  0 mm
15:52 7.9 °F /  -13.4 °C 5.2 °F /  -14.9 °C 1001.6 in /  33914.2 hPa West 4.7 mph /  7.6 km/h 9.7 mph /  15.6 km/h 83 % 0.0 in /  0 mm
15:58 7.9 °F /  -13.4 °C 5.0 °F /  -15 °C 1001.6 in /  33914.2 hPa West 1.4 mph /  2.3 km/h 6.4 mph /  10.3 km/h 82 % 0.0 in /  0 mm
16:04 8.1 °F /  -13.3 °C 5.2 °F /  -14.9 °C 1001.6 in /  33914.2 hPa WNW 1.4 mph /  2.3 km/h 6.4 mph /  10.3 km/h 82 % 0.0 in /  0 mm
16:10 8.3 °F /  -13.2 °C 5.4 °F /  -14.8 °C 1001.9 in /  33924.3 hPa West 4.7 mph /  7.6 km/h 6.4 mph /  10.3 km/h 82 % 0.0 in /  0 mm
16:16 8.9 °F /  -12.8 °C 5.6 °F /  -14.7 °C 1001.9 in /  33924.3 hPa NW 4.7 mph /  7.6 km/h 16.1 mph /  25.9 km/h 80 % 0.0 in /  0 mm
16:22 9.1 °F /  -12.7 °C 5.1 °F /  -14.9 °C 1001.9 in /  33924.3 hPa WSW 7.9 mph /  12.7 km/h 16.1 mph /  25.9 km/h 76 % 0.3 in /  7.62 mm
16:28 8.8 °F /  -12.9 °C 4.4 °F /  -15.3 °C 1001.9 in /  33924.3 hPa WNW 30.6 mph /  49.2 km/h 33.8 mph /  54.4 km/h 74 % 0.3 in /  7.62 mm
16:34 7.6 °F /  -13.6 °C 4.0 °F /  -15.6 °C 1002.3 in /  33937.9 hPa West 17.7 mph /  28.5 km/h 30.6 mph /  49.2 km/h 78 % 0.5 in /  12.7 mm
16:40 7.1 °F /  -13.8 °C 3.7 °F /  -15.7 °C 1001.9 in /  33924.3 hPa WSW 3.2 mph /  5.1 km/h 12.9 mph /  20.8 km/h 79 % 0.5 in /  12.7 mm
16:46 7.4 °F /  -13.7 °C 4.2 °F /  -15.4 °C 1001.9 in /  33924.3 hPa WNW 6.4 mph /  10.3 km/h 12.9 mph /  20.8 km/h 80 % 0.5 in /  12.7 mm
16:52 7.7 °F /  -13.5 °C 4.6 °F /  -15.2 °C 1002.3 in /  33937.9 hPa West 7.9 mph /  12.7 km/h 14.5 mph /  23.3 km/h 81 % 0.5 in /  12.7 mm
16:58 8.0 °F /  -13.3 °C 4.6 °F /  -15.2 °C 1002.3 in /  33937.9 hPa West 6.4 mph /  10.3 km/h 16.1 mph /  25.9 km/h 79 % 0.5 in /  12.7 mm
17:04 8.3 °F /  -13.2 °C 4.9 °F /  -15.1 °C 1002.3 in /  33937.9 hPa WNW 6.4 mph /  10.3 km/h 12.9 mph /  20.8 km/h 79 % 0.5 in /  12.7 mm
17:10 8.5 °F /  -13.1 °C 5.2 °F /  -14.9 °C 1002.3 in /  33937.9 hPa West 3.2 mph /  5.1 km/h 8.0 mph /  12.9 km/h 80 % 0.5 in /  12.7 mm
17:16 8.4 °F /  -13.1 °C 4.8 °F /  -15.1 °C 1002.3 in /  33937.9 hPa WSW 6.4 mph /  10.3 km/h 14.5 mph /  23.3 km/h 78 % 0.5 in /  12.7 mm
17:22 8.4 °F /  -13.1 °C 5.0 °F /  -15 °C 1002.6 in /  33948 hPa West 9.7 mph /  15.6 km/h 14.5 mph /  23.3 km/h 79 % 0.3 in /  7.62 mm
17:28 8.7 °F /  -12.9 °C 5.3 °F /  -14.8 °C 1002.6 in /  33948 hPa WNW 7.9 mph /  12.7 km/h 11.3 mph /  18.2 km/h 79 % 0.3 in /  7.62 mm
17:34 8.8 °F /  -12.9 °C 5.0 °F /  -15 °C 1002.6 in /  33948 hPa West 3.2 mph /  5.1 km/h 9.7 mph /  15.6 km/h 77 % 0.0 in /  0 mm
17:40 8.9 °F /  -12.8 °C 4.9 °F /  -15.1 °C 1002.6 in /  33948 hPa WSW 7.9 mph /  12.7 km/h 11.3 mph /  18.2 km/h 76 % 0.0 in /  0 mm
17:46 8.8 °F /  -12.9 °C 4.8 °F /  -15.1 °C 1002.9 in /  33958.2 hPa West 7.9 mph /  12.7 km/h 11.3 mph /  18.2 km/h 76 % 0.0 in /  0 mm
17:52 8.8 °F /  -12.9 °C 4.6 °F /  -15.2 °C 1002.9 in /  33958.2 hPa WNW 9.7 mph /  15.6 km/h 14.5 mph /  23.3 km/h 75 % 0.0 in /  0 mm
17:58 8.8 °F /  -12.9 °C 4.8 °F /  -15.1 °C 1002.9 in /  33958.2 hPa West 4.7 mph /  7.6 km/h 8.0 mph /  12.9 km/h 76 % 0.0 in /  0 mm
18:04 8.7 °F /  -12.9 °C 4.5 °F /  -15.3 °C 1002.9 in /  33958.2 hPa West 13.0 mph /  20.9 km/h 13.0 mph /  20.9 km/h 75 % 0.0 in /  0 mm
18:10 8.5 °F /  -13.1 °C 4.1 °F /  -15.5 °C 1002.9 in /  33958.2 hPa West 6.4 mph /  10.3 km/h 8.0 mph /  12.9 km/h 74 % 0.0 in /  0 mm
18:16 8.3 °F /  -13.2 °C 4.1 °F /  -15.5 °C 1003.3 in /  33971.7 hPa WSW 4.7 mph /  7.6 km/h 6.4 mph /  10.3 km/h 75 % 0.0 in /  0 mm
18:22 8.4 °F /  -13.1 °C 4.0 °F /  -15.6 °C 1003.3 in /  33971.7 hPa WSW 3.2 mph /  5.1 km/h 9.7 mph /  15.6 km/h 74 % 0.0 in /  0 mm
18:28 8.4 °F /  -13.1 °C 3.6 °F /  -15.8 °C 1003.3 in /  33971.7 hPa WSW 6.4 mph /  10.3 km/h 11.3 mph /  18.2 km/h 72 % 0.0 in /  0 mm
18:34 8.2 °F /  -13.2 °C 3.5 °F /  -15.8 °C 1003.6 in /  33981.9 hPa WSW 6.4 mph /  10.3 km/h 9.7 mph /  15.6 km/h 72 % 0.0 in /  0 mm
18:40 8.1 °F /  -13.3 °C 3.6 °F /  -15.8 °C 1003.6 in /  33981.9 hPa WSW 9.7 mph /  15.6 km/h 11.3 mph /  18.2 km/h 73 % 0.0 in /  0 mm
18:46 7.8 °F /  -13.4 °C 3.5 °F /  -15.8 °C 1003.9 in /  33992.1 hPa West 4.7 mph /  7.6 km/h 6.4 mph /  10.3 km/h 74 % 0.0 in /  0 mm
18:52 7.6 °F /  -13.6 °C 3.3 °F /  -15.9 °C 1003.9 in /  33992.1 hPa West 3.2 mph /  5.1 km/h 6.4 mph /  10.3 km/h 74 % 0.0 in /  0 mm
18:58 7.4 °F /  -13.7 °C 3.3 °F /  -15.9 °C 1003.9 in /  33992.1 hPa West 1.4 mph /  2.3 km/h 4.8 mph /  7.7 km/h 75 % 0.0 in /  0 mm
19:04 7.3 °F /  -13.7 °C 3.2 °F /  -16 °C 1003.9 in /  33992.1 hPa West 4.7 mph /  7.6 km/h 6.4 mph /  10.3 km/h 75 % 0.0 in /  0 mm
19:10 7.2 °F /  -13.8 °C 3.1 °F /  -16.1 °C 1004.3 in /  34005.6 hPa WSW 3.2 mph /  5.1 km/h 6.4 mph /  10.3 km/h 75 % 0.0 in /  0 mm
19:16 7.2 °F /  -13.8 °C 2.9 °F /  -16.2 °C 1004.3 in /  34005.6 hPa West 3.2 mph /  5.1 km/h 6.4 mph /  10.3 km/h 74 % 0.0 in /  0 mm
19:22 7.3 °F /  -13.7 °C 3.0 °F /  -16.1 °C 1004.3 in /  34005.6 hPa West 4.7 mph /  7.6 km/h 8.0 mph /  12.9 km/h 74 % 0.0 in /  0 mm
19:28 7.3 °F /  -13.7 °C 3.0 °F /  -16.1 °C 1004.6 in /  34015.8 hPa West 3.2 mph /  5.1 km/h 6.4 mph /  10.3 km/h 74 % 0.0 in /  0 mm
19:34 7.3 °F /  -13.7 °C 3.0 °F /  -16.1 °C 1004.6 in /  34015.8 hPa WSW 4.7 mph /  7.6 km/h 6.4 mph /  10.3 km/h 74 % 0.0 in /  0 mm
19:40 7.3 °F /  -13.7 °C 3.0 °F /  -16.1 °C 1004.6 in /  34015.8 hPa SW 6.4 mph /  10.3 km/h 12.9 mph /  20.8 km/h 74 % 0.0 in /  0 mm
19:46 7.3 °F /  -13.7 °C 3.0 °F /  -16.1 °C 1004.6 in /  34015.8 hPa WSW 6.4 mph /  10.3 km/h 11.3 mph /  18.2 km/h 74 % 0.0 in /  0 mm
19:52 7.3 °F /  -13.7 °C 3.2 °F /  -16 °C 1005.0 in /  34029.3 hPa West 14.3 mph /  23 km/h 14.5 mph /  23.3 km/h 75 % 0.0 in /  0 mm
19:58 7.3 °F /  -13.7 °C 3.3 °F /  -15.9 °C 1005.0 in /  34029.3 hPa WSW 11.1 mph /  17.9 km/h 11.3 mph /  18.2 km/h 76 % 0.0 in /  0 mm
20:05 7.2 °F /  -13.8 °C 3.4 °F /  -15.9 °C 1005.0 in /  34029.3 hPa West 6.4 mph /  10.3 km/h 8.0 mph /  12.9 km/h 77 % 0.0 in /  0 mm
20:11 7.1 °F /  -13.8 °C 3.5 °F /  -15.8 °C 1005.0 in /  34029.3 hPa SW 6.4 mph /  10.3 km/h 11.3 mph /  18.2 km/h 78 % 0.0 in /  0 mm
20:17 6.9 °F /  -13.9 °C 3.5 °F /  -15.8 °C 1005.3 in /  34039.5 hPa WSW 4.7 mph /  7.6 km/h 12.9 mph /  20.8 km/h 79 % 0.0 in /  0 mm
20:23 6.8 °F /  -14 °C 3.6 °F /  -15.8 °C 1005.3 in /  34039.5 hPa WSW 4.7 mph /  7.6 km/h 9.7 mph /  15.6 km/h 80 % 0.0 in /  0 mm
20:29 6.8 °F /  -14 °C 3.6 °F /  -15.8 °C 1005.3 in /  34039.5 hPa WSW 6.4 mph /  10.3 km/h 12.9 mph /  20.8 km/h 80 % 0.0 in /  0 mm
20:35 6.6 °F /  -14.1 °C 3.6 °F /  -15.8 °C 1005.3 in /  34039.5 hPa WSW 1.4 mph /  2.3 km/h 11.3 mph /  18.2 km/h 81 % 0.0 in /  0 mm
20:41 6.4 °F /  -14.2 °C 3.4 °F /  -15.9 °C 1005.3 in /  34039.5 hPa SW 9.7 mph /  15.6 km/h 9.7 mph /  15.6 km/h 81 % 0.0 in /  0 mm
20:47 6.5 °F /  -14.2 °C 3.5 °F /  -15.8 °C 1005.6 in /  34049.6 hPa West 7.9 mph /  12.7 km/h 8.0 mph /  12.9 km/h 81 % 0.0 in /  0 mm
20:53 6.4 °F /  -14.2 °C 3.6 °F /  -15.8 °C 1005.6 in /  34049.6 hPa WSW 11.1 mph /  17.9 km/h 12.9 mph /  20.8 km/h 82 % 0.0 in /  0 mm
20:59 6.3 °F /  -14.3 °C 3.5 °F /  -15.8 °C 1005.6 in /  34049.6 hPa WSW 3.2 mph /  5.1 km/h 9.7 mph /  15.6 km/h 82 % 0.0 in /  0 mm
21:05 6.3 °F /  -14.3 °C 3.5 °F /  -15.8 °C 1005.6 in /  34049.6 hPa West 3.2 mph /  5.1 km/h 9.7 mph /  15.6 km/h 82 % 0.0 in /  0 mm
21:11 6.2 °F /  -14.3 °C 3.5 °F /  -15.8 °C 1005.6 in /  34049.6 hPa WSW 4.7 mph /  7.6 km/h 9.7 mph /  15.6 km/h 83 % 0.0 in /  0 mm
21:17 6.1 °F /  -14.4 °C 3.4 °F /  -15.9 °C 1006.0 in /  34063.2 hPa WSW 4.7 mph /  7.6 km/h 6.4 mph /  10.3 km/h 83 % 0.0 in /  0 mm
21:23 5.9 °F /  -14.5 °C 3.2 °F /  -16 °C 1006.0 in /  34063.2 hPa SW 4.7 mph /  7.6 km/h 6.4 mph /  10.3 km/h 83 % 0.0 in /  0 mm
21:29 5.7 °F /  -14.6 °C 3.0 °F /  -16.1 °C 1006.0 in /  34063.2 hPa SSW 1.4 mph /  2.3 km/h 6.4 mph /  10.3 km/h 83 % 0.0 in /  0 mm
21:35 5.4 °F /  -14.8 °C 3.1 °F /  -16.1 °C 1006.0 in /  34063.2 hPa SSW 3.2 mph /  5.1 km/h 6.4 mph /  10.3 km/h 85 % 0.0 in /  0 mm
21:41 5.1 °F /  -14.9 °C 3.0 °F /  -16.1 °C 1006.0 in /  34063.2 hPa SSW 3.2 mph /  5.1 km/h 4.8 mph /  7.7 km/h 86 % 0.0 in /  0 mm
21:47 5.1 °F /  -14.9 °C 3.0 °F /  -16.1 °C 1006.0 in /  34063.2 hPa SW 3.2 mph /  5.1 km/h 4.8 mph /  7.7 km/h 86 % 0.0 in /  0 mm
21:53 5.2 °F /  -14.9 °C 3.1 °F /  -16.1 °C 1006.3 in /  34073.3 hPa SW 7.9 mph /  12.7 km/h 8.0 mph /  12.9 km/h 86 % 0.0 in /  0 mm
21:59 4.9 °F /  -15.1 °C 2.8 °F /  -16.2 °C 1006.3 in /  34073.3 hPa West 7.9 mph /  12.7 km/h 11.3 mph /  18.2 km/h 86 % 0.0 in /  0 mm
22:05 5.1 °F /  -14.9 °C 2.8 °F /  -16.2 °C 1006.3 in /  34073.3 hPa WSW 6.4 mph /  10.3 km/h 9.7 mph /  15.6 km/h 85 % 0.0 in /  0 mm
22:11 5.3 °F /  -14.8 °C 2.8 °F /  -16.2 °C 1006.3 in /  34073.3 hPa SW 16.3 mph /  26.2 km/h 17.7 mph /  28.5 km/h 84 % 0.0 in /  0 mm
22:19 5.5 °F /  -14.7 °C 2.7 °F /  -16.3 °C 1006.3 in /  34073.3 hPa SW 13.0 mph /  20.9 km/h 14.5 mph /  23.3 km/h 82 % 0.0 in /  0 mm
22:25 5.5 °F /  -14.7 °C 2.7 °F /  -16.3 °C 1006.3 in /  34073.3 hPa SW 4.7 mph /  7.6 km/h 11.3 mph /  18.2 km/h 82 % 0.0 in /  0 mm
22:31 5.4 °F /  -14.8 °C 2.6 °F /  -16.3 °C 1006.7 in /  34086.9 hPa WSW 6.4 mph /  10.3 km/h 14.5 mph /  23.3 km/h 82 % 0.0 in /  0 mm
22:37 5.4 °F /  -14.8 °C 2.6 °F /  -16.3 °C 1006.7 in /  34086.9 hPa SW 4.7 mph /  7.6 km/h 9.7 mph /  15.6 km/h 82 % 0.0 in /  0 mm
22:43 5.2 °F /  -14.9 °C 2.5 °F /  -16.4 °C 1006.7 in /  34086.9 hPa SSW 6.4 mph /  10.3 km/h 9.7 mph /  15.6 km/h 83 % 0.0 in /  0 mm
22:49 5.2 °F /  -14.9 °C 2.5 °F /  -16.4 °C 1006.7 in /  34086.9 hPa West 6.4 mph /  10.3 km/h 12.9 mph /  20.8 km/h 83 % 0.0 in /  0 mm
22:55 5.2 °F /  -14.9 °C 2.5 °F /  -16.4 °C 1006.7 in /  34086.9 hPa SW 9.7 mph /  15.6 km/h 12.9 mph /  20.8 km/h 83 % 0.0 in /  0 mm
23:01 5.3 °F /  -14.8 °C 2.5 °F /  -16.4 °C 1006.7 in /  34086.9 hPa SSW 9.7 mph /  15.6 km/h 16.1 mph /  25.9 km/h 82 % 0.0 in /  0 mm
23:07 5.2 °F /  -14.9 °C 2.5 °F /  -16.4 °C 1006.7 in /  34086.9 hPa WSW 13.0 mph /  20.9 km/h 14.5 mph /  23.3 km/h 83 % 0.0 in /  0 mm
23:13 5.1 °F /  -14.9 °C 2.5 °F /  -16.4 °C 1006.7 in /  34086.9 hPa SW 7.9 mph /  12.7 km/h 14.5 mph /  23.3 km/h 83 % 0.0 in /  0 mm
23:19 5.1 °F /  -14.9 °C 2.5 °F /  -16.4 °C 1007.0 in /  34097 hPa WSW 7.9 mph /  12.7 km/h 16.1 mph /  25.9 km/h 83 % 0.0 in /  0 mm
23:25 5.0 °F /  -15 °C 2.5 °F /  -16.4 °C 1007.0 in /  34097 hPa SW 9.7 mph /  15.6 km/h 16.1 mph /  25.9 km/h 84 % 0.0 in /  0 mm
23:31 4.9 °F /  -15.1 °C 2.4 °F /  -16.4 °C 1007.0 in /  34097 hPa WSW 7.9 mph /  12.7 km/h 14.5 mph /  23.3 km/h 84 % 0.0 in /  0 mm
23:37 4.9 °F /  -15.1 °C 2.6 °F /  -16.3 °C 1007.0 in /  34097 hPa SW 9.7 mph /  15.6 km/h 12.9 mph /  20.8 km/h 85 % 0.0 in /  0 mm
23:43 4.8 °F /  -15.1 °C 2.5 °F /  -16.4 °C 1007.3 in /  34107.2 hPa SW 4.7 mph /  7.6 km/h 11.3 mph /  18.2 km/h 85 % 0.0 in /  0 mm
23:49 4.6 °F /  -15.2 °C 2.5 °F /  -16.4 °C 1007.3 in /  34107.2 hPa SW 6.4 mph /  10.3 km/h 9.7 mph /  15.6 km/h 86 % 0.0 in /  0 mm
23:55 4.3 °F /  -15.4 °C 2.3 °F /  -16.5 °C 1007.0 in /  34097 hPa SSW 4.7 mph /  7.6 km/h 8.0 mph /  12.9 km/h 87 % 0.0 in /  0 mm
Meteo18
Compliments of Weather Underground - 4 mb

Script developed by  Jim McMurry - jmcmurry@mwt.net Adapted for the template by  Wim van der Kuil - Leuven-Template.eu

You find our weather info also at:

European Weather Network

Weather Underground

Equipment we use:

Weather-station
Davis Vue

Weather-program
Meteobridge

Weather-server
Raspberry PI 2 B+

Provider
1 and 1

Davis Vue

Meteobridge

Raspberry PI 2 B+

1 and 1